Time;durP1;ratioP1;P1;durP2;ratioP2;P2;SDS_P1;SDS_P2;PMS_P1;PMS_P2;Temp;Humidity;BMP_temperature;BMP_pressure;BME280_temperature;BME280_humidity;BME280_pressure;Samples;Min_cycle;Max_cycle;Signal;HPM_P1;HPM_P2
2023/12/20 00:01:01;;;;;;;38.85;23.95;;;2.90;99.90;;;;;;5055877;28;20051;-66
2023/12/20 00:03:27;;;;;;;33.15;22.88;;;2.90;99.90;;;;;;5054934;28;20025;-65
2023/12/20 00:05:53;;;;;;;32.53;22.23;;;2.90;99.90;;;;;;5055516;28;20354;-65
2023/12/20 00:08:18;;;;;;;33.10;22.10;;;2.90;99.90;;;;;;5055207;28;20142;-65
2023/12/20 00:10:44;;;;;;;31.80;22.70;;;2.80;99.90;;;;;;5055358;28;20067;-65
2023/12/20 00:13:10;;;;;;;36.20;22.63;;;2.80;99.90;;;;;;5055465;28;20032;-67
2023/12/20 00:15:36;;;;;;;33.55;23.25;;;2.70;99.90;;;;;;5054782;28;20033;-65
2023/12/20 00:18:01;;;;;;;31.33;22.70;;;2.70;99.90;;;;;;5054538;28;20370;-65
2023/12/20 00:20:28;;;;;;;30.33;21.77;;;2.60;99.90;;;;;;5054797;28;20055;-65
2023/12/20 00:22:58;;;;;;;31.42;21.77;;;2.60;99.90;;;;;;5054874;28;20385;-65
2023/12/20 00:25:24;;;;;;;33.22;21.25;;;2.50;99.90;;;;;;5055032;28;20428;-66
2023/12/20 00:27:50;;;;;;;33.22;21.90;;;2.40;99.90;;;;;;5055037;28;20037;-65
2023/12/20 00:30:16;;;;;;;33.17;22.08;;;2.50;99.90;;;;;;5054931;28;20074;-65
2023/12/20 00:32:46;;;;;;;35.70;22.85;;;2.50;99.90;;;;;;5054444;28;20017;-65
2023/12/20 00:35:16;;;;;;;35.37;23.60;;;2.40;99.90;;;;;;5055099;28;20025;-65
2023/12/20 00:37:42;;;;;;;32.75;21.95;;;2.40;99.90;;;;;;5054239;28;20037;-65
2023/12/20 00:40:08;;;;;;;34.90;22.85;;;2.40;99.90;;;;;;5054853;28;20143;-65
2023/12/20 00:42:35;;;;;;;35.90;23.27;;;2.40;99.90;;;;;;5054422;28;20029;-65
2023/12/20 00:45:02;;;;;;;39.05;24.75;;;2.40;99.90;;;;;;5054698;28;20044;-65
2023/12/20 00:47:27;;;;;;;33.95;22.95;;;2.30;99.90;;;;;;5054259;28;20033;-66
2023/12/20 00:49:53;;;;;;;34.10;23.13;;;2.30;99.90;;;;;;5070871;28;20028;-66
2023/12/20 00:52:19;;;;;;;34.00;22.90;;;2.30;99.90;;;;;;5074432;28;20354;-66
2023/12/20 00:54:45;;;;;;;38.13;24.70;;;2.30;99.90;;;;;;5074094;28;20035;-66
2023/12/20 00:57:11;;;;;;;37.45;22.98;;;2.30;99.90;;;;;;5074137;28;20485;-66
2023/12/20 00:59:36;;;;;;;38.15;23.38;;;2.30;99.90;;;;;;5073736;28;20056;-66
2023/12/20 01:02:02;;;;;;;45.25;23.27;;;2.30;99.90;;;;;;5074505;28;20044;-66
2023/12/20 01:04:28;;;;;;;34.13;22.05;;;2.30;99.90;;;;;;5074071;28;20036;-66
2023/12/20 01:06:53;;;;;;;34.80;23.65;;;2.20;99.90;;;;;;5074688;28;20119;-66
2023/12/20 01:09:19;;;;;;;35.72;23.08;;;2.20;99.90;;;;;;5074267;28;20044;-65
2023/12/20 01:11:46;;;;;;;35.63;22.60;;;2.20;99.90;;;;;;5073909;28;20043;-65
2023/12/20 01:14:12;;;;;;;35.47;22.15;;;2.20;99.90;;;;;;5054553;28;20512;-66
2023/12/20 01:16:38;;;;;;;34.67;22.10;;;2.20;99.90;;;;;;5052560;28;20376;-65
2023/12/20 01:19:03;;;;;;;32.55;22.08;;;2.20;99.90;;;;;;5053879;28;20123;-66
2023/12/20 01:21:29;;;;;;;35.05;22.00;;;2.20;99.90;;;;;;5053401;28;20025;-66
2023/12/20 01:23:54;;;;;;;31.67;20.58;;;2.10;99.90;;;;;;5054303;28;20021;-66
2023/12/20 01:26:20;;;;;;;32.05;20.45;;;2.10;99.90;;;;;;5054226;28;20067;-66
2023/12/20 01:28:46;;;;;;;33.28;20.00;;;2.10;99.90;;;;;;5053417;28;20033;-66
2023/12/20 01:31:11;;;;;;;30.60;20.67;;;2.00;99.90;;;;;;5053633;28;20528;-66
2023/12/20 01:33:37;;;;;;;28.67;20.58;;;2.10;99.90;;;;;;5053681;28;20029;-66
2023/12/20 01:36:03;;;;;;;27.65;19.88;;;2.00;99.90;;;;;;5053675;28;20036;-65
2023/12/20 01:38:29;;;;;;;26.17;18.90;;;1.90;99.90;;;;;;5053261;28;20529;-65
2023/12/20 01:40:55;;;;;;;29.85;19.08;;;1.90;99.90;;;;;;5053626;28;20049;-65
2023/12/20 01:43:20;;;;;;;28.27;19.27;;;1.80;99.90;;;;;;5053665;28;20029;-66
2023/12/20 01:45:47;;;;;;;29.35;19.48;;;1.70;99.70;;;;;;5053172;28;20048;-66
2023/12/20 01:48:14;;;;;;;29.05;19.98;;;1.60;99.90;;;;;;5053422;28;20033;-66
2023/12/20 01:50:40;;;;;;;28.60;20.20;;;1.60;99.90;;;;;;5053330;28;20029;-67
2023/12/20 01:53:08;;;;;;;28.48;19.45;;;1.50;99.70;;;;;;5053553;28;20572;-66
2023/12/20 01:55:36;;;;;;;29.48;19.85;;;1.40;99.70;;;;;;5053220;28;20175;-66
2023/12/20 01:58:02;;;;;;;32.67;20.48;;;1.30;99.90;;;;;;5053287;28;20040;-66
2023/12/20 02:00:29;;;;;;;30.55;20.90;;;1.20;99.90;;;;;;5052612;28;20052;-67
2023/12/20 02:02:55;;;;;;;31.33;21.35;;;1.20;99.90;;;;;;5051928;28;20021;-66
2023/12/20 02:05:22;;;;;;;30.13;20.98;;;1.10;99.90;;;;;;5053313;28;20044;-66
2023/12/20 02:07:47;;;;;;;30.67;20.70;;;1.10;99.90;;;;;;5052672;28;20048;-66
2023/12/20 02:10:13;;;;;;;27.17;19.42;;;1.10;99.90;;;;;;5053173;28;20021;-66
2023/12/20 02:12:39;;;;;;;29.40;20.10;;;1.10;99.90;;;;;;5051983;28;20037;-66
2023/12/20 02:15:05;;;;;;;31.33;20.88;;;1.10;99.90;;;;;;5053563;28;20028;-66
2023/12/20 02:17:32;;;;;;;27.25;20.33;;;1.10;99.90;;;;;;5052894;28;20037;-66
2023/12/20 02:19:57;;;;;;;31.63;20.33;;;1.10;99.90;;;;;;5053135;28;20061;-66
2023/12/20 02:22:23;;;;;;;28.55;21.20;;;1.00;99.90;;;;;;5052557;28;20048;-66
2023/12/20 02:24:48;;;;;;;28.73;19.95;;;1.00;99.90;;;;;;5052625;28;20029;-66
2023/12/20 02:27:17;;;;;;;30.10;20.60;;;1.10;99.90;;;;;;5052900;28;20025;-65
2023/12/20 02:29:43;;;;;;;30.08;20.48;;;1.10;99.90;;;;;;5052491;28;20029;-66
2023/12/20 02:32:09;;;;;;;28.58;20.10;;;1.10;99.90;;;;;;5052725;28;20048;-66
2023/12/20 02:34:34;;;;;;;29.23;21.08;;;1.10;99.90;;;;;;5052419;28;20386;-66
2023/12/20 02:37:00;;;;;;;26.85;19.90;;;1.10;99.90;;;;;;5052764;28;20095;-66
2023/12/20 02:39:26;;;;;;;26.27;19.40;;;1.00;99.90;;;;;;5052568;28;20473;-66
2023/12/20 02:41:51;;;;;;;27.48;18.83;;;1.00;99.90;;;;;;5051918;28;20465;-66
2023/12/20 02:44:17;;;;;;;27.35;19.35;;;0.90;99.90;;;;;;5052696;28;20051;-65
2023/12/20 02:46:43;;;;;;;26.90;19.00;;;0.90;99.90;;;;;;5055893;28;20343;-66
2023/12/20 02:49:08;;;;;;;26.20;18.90;;;1.00;99.90;;;;;;5072263;28;20138;-66
2023/12/20 02:51:34;;;;;;;26.38;18.08;;;1.00;99.90;;;;;;5072303;28;20078;-66
2023/12/20 02:53:59;;;;;;;23.95;17.02;;;1.00;99.90;;;;;;5072325;28;20025;-66
2023/12/20 02:56:25;;;;;;;19.88;14.15;;;1.10;99.90;;;;;;5071981;28;20384;-66
2023/12/20 02:58:50;;;;;;;23.45;16.02;;;1.10;99.90;;;;;;5071898;28;20098;-65
2023/12/20 03:01:16;;;;;;;22.90;16.60;;;1.20;99.90;;;;;;5072285;28;20028;-65
2023/12/20 03:03:42;;;;;;;19.23;13.65;;;1.20;99.90;;;;;;5071858;28;20115;-66
2023/12/20 03:06:07;;;;;;;18.88;14.18;;;1.30;99.90;;;;;;5072187;28;20094;-66
2023/12/20 03:08:33;;;;;;;20.80;13.05;;;1.40;99.90;;;;;;5071730;28;20028;-66
2023/12/20 03:11:01;;;;;;;17.92;12.98;;;1.50;99.90;;;;;;5072196;28;20078;-66
2023/12/20 03:13:27;;;;;;;13.93;11.07;;;1.60;99.90;;;;;;5071766;28;20032;-66
2023/12/20 03:15:52;;;;;;;15.63;11.38;;;1.70;99.90;;;;;;5072016;28;20032;-66
2023/12/20 03:18:18;;;;;;;15.23;11.15;;;1.80;99.90;;;;;;5063366;28;20393;-66
2023/12/20 03:20:44;;;;;;;16.48;12.30;;;1.90;99.90;;;;;;5051675;28;20111;-66
2023/12/20 03:23:09;;;;;;;16.63;11.55;;;2.00;99.90;;;;;;5051691;28;20028;-67
2023/12/20 03:25:35;;;;;;;17.52;13.07;;;2.00;99.90;;;;;;5051584;28;20457;-67
2023/12/20 03:28:00;;;;;;;18.60;13.18;;;2.00;99.40;;;;;;5051976;28;20041;-67
2023/12/20 03:30:26;;;;;;;18.10;12.65;;;2.10;99.00;;;;;;5051861;28;20063;-66
2023/12/20 03:32:52;;;;;;;16.73;13.15;;;2.10;98.40;;;;;;5051523;28;20654;-66
2023/12/20 03:35:17;;;;;;;16.98;12.73;;;2.10;98.00;;;;;;5051765;28;20075;-66
2023/12/20 03:37:43;;;;;;;16.50;12.60;;;2.10;97.70;;;;;;5051028;28;20132;-66
2023/12/20 03:40:09;;;;;;;16.35;11.68;;;2.10;97.50;;;;;;5051539;28;20035;-65
2023/12/20 03:42:34;;;;;;;16.55;12.02;;;2.20;97.30;;;;;;5051325;28;20021;-66
2023/12/20 03:45:00;;;;;;;16.08;11.32;;;2.20;97.00;;;;;;5051315;28;20415;-66
2023/12/20 03:47:26;;;;;;;13.60;10.32;;;2.30;96.90;;;;;;5051557;28;20032;-66
2023/12/20 03:49:51;;;;;;;14.23;11.18;;;2.30;96.80;;;;;;5051211;28;20484;-66
2023/12/20 03:52:17;;;;;;;16.52;11.02;;;2.40;96.50;;;;;;5051609;28;20028;-66
2023/12/20 03:54:43;;;;;;;14.13;10.38;;;2.40;96.30;;;;;;5051244;28;20355;-66
2023/12/20 03:57:08;;;;;;;15.52;11.77;;;2.50;96.10;;;;;;5051709;28;20089;-66
2023/12/20 03:59:37;;;;;;;15.25;10.35;;;2.50;95.80;;;;;;5051516;28;20419;-68
2023/12/20 04:02:04;;;;;;;16.33;12.18;;;2.60;95.80;;;;;;5051941;28;20037;-67
2023/12/20 04:04:30;;;;;;;15.50;12.30;;;2.60;95.50;;;;;;5051636;28;20029;-67
2023/12/20 04:06:55;;;;;;;17.13;12.73;;;2.70;95.20;;;;;;5050959;28;20036;-67
2023/12/20 04:09:21;;;;;;;16.13;12.73;;;2.70;94.40;;;;;;5051113;28;20037;-66
2023/12/20 04:11:46;;;;;;;16.50;12.85;;;2.60;94.10;;;;;;5051058;28;20037;-65
2023/12/20 04:14:12;;;;;;;16.20;12.93;;;2.70;94.10;;;;;;5051569;28;20416;-66
2023/12/20 04:16:39;;;;;;;18.42;13.73;;;2.60;93.60;;;;;;5050964;28;20024;-66
2023/12/20 04:19:04;;;;;;;17.98;13.55;;;2.60;93.60;;;;;;5051469;28;20032;-65
2023/12/20 04:21:30;;;;;;;19.52;14.05;;;2.60;93.70;;;;;;5051624;28;20071;-67
2023/12/20 04:23:56;;;;;;;18.20;12.77;;;2.60;93.50;;;;;;5051293;28;20049;-65
2023/12/20 04:26:22;;;;;;;16.38;12.85;;;2.60;93.80;;;;;;5051143;28;20393;-67
2023/12/20 04:28:47;;;;;;;18.30;12.70;;;2.60;93.90;;;;;;5050909;28;20455;-66
2023/12/20 04:31:13;;;;;;;20.35;14.00;;;2.60;93.90;;;;;;5050983;28;20071;-66
2023/12/20 04:33:39;;;;;;;18.50;12.60;;;2.50;93.90;;;;;;5051214;28;20385;-68
2023/12/20 04:36:04;;;;;;;17.15;13.23;;;2.50;94.00;;;;;;5053595;28;20021;-67
2023/12/20 04:38:30;;;;;;;18.80;12.48;;;2.50;94.10;;;;;;5055282;28;20255;-67
2023/12/20 04:40:56;;;;;;;16.27;10.65;;;2.50;94.20;;;;;;5054897;28;20520;-67
2023/12/20 04:43:22;;;;;;;16.58;11.82;;;2.60;94.50;;;;;;5055204;28;20032;-66
2023/12/20 04:45:47;;;;;;;14.85;11.48;;;2.60;94.20;;;;;;5054724;28;20035;-66
2023/12/20 04:48:13;;;;;;;17.13;12.57;;;2.70;94.00;;;;;;5055309;28;20045;-67
2023/12/20 04:50:38;;;;;;;17.80;12.68;;;2.60;94.20;;;;;;5054369;28;20032;-68
2023/12/20 04:53:04;;;;;;;20.20;13.65;;;2.60;93.90;;;;;;5061613;28;20500;-67
2023/12/20 04:55:30;;;;;;;18.58;12.80;;;2.60;94.10;;;;;;5075082;28;20063;-67
2023/12/20 04:57:56;;;;;;;17.35;12.30;;;2.60;94.00;;;;;;5074567;28;20059;-67
2023/12/20 05:00:22;;;;;;;16.92;11.88;;;2.60;94.20;;;;;;5075029;28;20053;-66
2023/12/20 05:02:47;;;;;;;16.67;12.75;;;2.60;94.30;;;;;;5074317;28;20025;-67
2023/12/20 05:05:14;;;;;;;15.70;11.45;;;2.60;94.50;;;;;;5074748;28;20025;-66
2023/12/20 05:07:40;;;;;;;16.15;11.05;;;2.60;94.70;;;;;;5074219;28;20123;-65
2023/12/20 05:10:08;;;;;;;16.08;10.18;;;2.60;95.00;;;;;;5074420;28;20516;-66
2023/12/20 05:12:34;;;;;;;13.20;8.93;;;2.70;95.30;;;;;;5074666;28;20032;-66
2023/12/20 05:14:59;;;;;;;9.98;6.95;;;2.80;95.70;;;;;;5074139;28;20077;-67
2023/12/20 05:17:25;;;;;;;9.02;5.32;;;2.90;96.20;;;;;;5074931;28;20028;-67
2023/12/20 05:19:51;;;;;;;9.60;5.93;;;3.10;96.90;;;;;;5074408;28;20453;-66
2023/12/20 05:22:17;;;;;;;8.27;6.00;;;3.40;97.50;;;;;;5074457;28;20085;-66
2023/12/20 05:24:42;;;;;;;9.57;5.70;;;3.50;97.80;;;;;;5057444;28;20534;-66
2023/12/20 05:27:08;;;;;;;9.25;5.35;;;3.70;98.00;;;;;;5054581;28;20091;-67
2023/12/20 05:29:34;;;;;;;9.88;6.07;;;3.80;97.80;;;;;;5054317;28;20039;-66
2023/12/20 05:31:59;;;;;;;9.65;5.50;;;3.90;97.80;;;;;;5053995;28;20025;-67
2023/12/20 05:34:25;;;;;;;8.40;6.20;;;4.00;97.80;;;;;;5054614;28;20060;-67
2023/12/20 05:36:51;;;;;;;11.13;6.60;;;4.10;97.70;;;;;;5053897;28;20044;-66
2023/12/20 05:39:17;;;;;;;8.27;5.95;;;4.20;97.70;;;;;;5054190;28;20458;-67
2023/12/20 05:41:42;;;;;;;12.25;6.80;;;4.20;97.70;;;;;;5053751;28;20029;-66
2023/12/20 05:44:08;;;;;;;9.07;6.57;;;4.30;97.90;;;;;;5054225;28;20025;-66
2023/12/20 05:46:34;;;;;;;9.07;6.07;;;4.30;98.00;;;;;;5053264;28;20029;-67
2023/12/20 05:48:59;;;;;;;10.05;5.80;;;4.40;98.30;;;;;;5070539;28;20040;-66
2023/12/20 05:51:25;;;;;;;6.65;5.32;;;4.50;98.60;;;;;;5057738;28;20386;-68
2023/12/20 05:53:51;;;;;;;9.32;5.72;;;4.60;99.00;;;;;;5044418;28;20033;-67
2023/12/20 05:56:16;;;;;;;8.68;5.20;;;4.70;99.10;;;;;;5040988;28;20084;-67
2023/12/20 05:58:43;;;;;;;7.30;4.93;;;4.80;99.50;;;;;;5040869;28;20469;-66
2023/12/20 06:01:09;;;;;;;7.65;4.40;;;5.00;99.90;;;;;;5043585;28;20116;-66
2023/12/20 06:03:34;;;;;;;6.82;4.85;;;5.10;99.90;;;;;;5059332;28;20101;-67
2023/12/20 06:06:06;;;;;;;7.60;4.78;;;5.30;99.90;;;;;;5053202;28;20112;-66
2023/12/20 06:08:32;;;;;;;6.85;4.15;;;5.50;99.60;;;;;;5053636;28;20386;-67
2023/12/20 06:10:59;;;;;;;5.38;3.85;;;5.70;99.20;;;;;;5052975;28;20045;-67
2023/12/20 06:13:24;;;;;;;7.05;4.20;;;5.80;98.80;;;;;;5053471;28;20029;-66
2023/12/20 06:15:50;;;;;;;8.57;4.18;;;5.90;98.30;;;;;;5051765;28;20056;-67
2023/12/20 06:18:16;;;;;;;8.00;4.43;;;6.00;98.10;;;;;;5038991;28;20030;-66
2023/12/20 06:20:41;;;;;;;8.88;4.50;;;6.10;97.80;;;;;;5042411;28;20029;-66
2023/12/20 06:23:07;;;;;;;8.57;4.38;;;6.20;97.40;;;;;;5052844;28;20381;-67
2023/12/20 06:25:33;;;;;;;9.93;3.83;;;6.40;97.00;;;;;;5053201;28;20029;-67
2023/12/20 06:27:58;;;;;;;9.25;4.20;;;6.50;96.60;;;;;;5051391;28;20469;-68
2023/12/20 06:30:25;;;;;;;5.43;3.20;;;6.60;96.20;;;;;;5050360;28;20036;-66
2023/12/20 06:32:51;;;;;;;9.13;3.70;;;6.70;95.60;;;;;;5035349;28;20503;-65
2023/12/20 06:35:16;;;;;;;6.88;2.90;;;6.90;95.10;;;;;;5041894;28;20033;-66
2023/12/20 06:37:42;;;;;;;5.35;3.53;;;7.00;94.50;;;;;;5051014;28;20108;-67
2023/12/20 06:40:10;;;;;;;6.97;3.00;;;7.10;94.00;;;;;;5052327;28;20421;-66
2023/12/20 06:42:35;;;;;;;4.03;2.80;;;7.20;93.60;;;;;;5039302;28;20056;-66
2023/12/20 06:45:01;;;;;;;5.50;2.75;;;7.30;92.70;;;;;;5047679;28;20125;-66
2023/12/20 06:47:27;;;;;;;3.25;2.38;;;7.40;92.30;;;;;;5052114;28;20495;-66
2023/12/20 06:49:52;;;;;;;4.10;2.70;;;7.50;91.90;;;;;;5054670;28;20033;-67
2023/12/20 06:52:18;;;;;;;5.30;2.80;;;7.60;91.60;;;;;;5070655;28;20400;-68
2023/12/20 06:54:44;;;;;;;4.65;2.47;;;7.60;91.30;;;;;;5048262;28;20060;-66
2023/12/20 06:57:09;;;;;;;5.50;3.55;;;7.70;91.00;;;;;;5052030;28;20024;-66
2023/12/20 06:59:39;;;;;;;4.00;2.20;;;7.80;91.00;;;;;;5051730;28;20055;-67
2023/12/20 07:02:05;;;;;;;4.07;2.50;;;7.80;90.80;;;;;;5051067;28;20966;-67
2023/12/20 07:04:31;;;;;;;5.78;2.60;;;7.90;90.80;;;;;;5051295;28;20075;-67
2023/12/20 07:07:00;;;;;;;3.75;2.35;;;7.90;90.80;;;;;;5048421;28;20093;-66
2023/12/20 07:09:26;;;;;;;4.07;2.35;;;8.00;90.70;;;;;;5050071;28;20061;-66
2023/12/20 07:11:52;;;;;;;3.50;2.60;;;8.10;90.60;;;;;;5050076;28;20037;-66
2023/12/20 07:14:18;;;;;;;4.72;2.65;;;8.10;90.30;;;;;;5050806;28;20037;-66
2023/12/20 07:16:43;;;;;;;3.58;2.88;;;8.20;90.00;;;;;;5047979;28;20081;-65
2023/12/20 07:19:09;;;;;;;4.63;2.60;;;8.20;89.00;;;;;;5049239;28;20048;-65
2023/12/20 07:21:34;;;;;;;4.57;2.67;;;8.30;88.00;;;;;;5049139;28;20174;-66
2023/12/20 07:24:00;;;;;;;4.88;2.80;;;8.30;87.20;;;;;;5050016;28;20017;-65
2023/12/20 07:26:25;;;;;;;3.40;2.30;;;8.40;86.70;;;;;;5050419;28;20029;-66
2023/12/20 07:28:51;;;;;;;4.32;2.42;;;8.40;86.20;;;;;;5048592;28;20037;-65
2023/12/20 07:31:17;;;;;;;6.45;2.97;;;8.40;85.70;;;;;;5050229;28;20033;-66
2023/12/20 07:33:42;;;;;;;2.40;2.20;;;8.40;85.70;;;;;;5050223;28;20021;-66
2023/12/20 07:36:08;;;;;;;4.63;2.78;;;8.40;87.40;;;;;;5049021;28;20427;-66
2023/12/20 07:38:34;;;;;;;12.65;2.88;;;8.40;88.30;;;;;;5045745;28;20029;-66
2023/12/20 07:41:00;;;;;;;5.60;3.53;;;8.40;89.60;;;;;;5047822;28;20025;-66
2023/12/20 07:43:25;;;;;;;5.22;2.78;;;8.30;89.90;;;;;;5049891;28;20374;-66
2023/12/20 07:45:51;;;;;;;7.88;2.60;;;8.30;90.20;;;;;;5049134;28;20106;-67
2023/12/20 07:48:16;;;;;;;4.65;2.80;;;8.20;90.10;;;;;;5049506;28;20032;-66
2023/12/20 07:50:42;;;;;;;5.22;2.90;;;8.20;90.20;;;;;;5048473;28;20035;-65
2023/12/20 07:53:08;;;;;;;4.85;2.65;;;8.20;90.20;;;;;;5050147;28;20104;-66
2023/12/20 07:55:34;;;;;;;4.63;2.90;;;8.20;90.10;;;;;;5051414;28;20082;-66
2023/12/20 07:58:00;;;;;;;5.30;3.03;;;8.10;90.50;;;;;;5050509;28;20036;-66
2023/12/20 08:00:26;;;;;;;4.75;3.22;;;8.10;90.30;;;;;;5049245;28;20458;-67
2023/12/20 08:02:52;;;;;;;7.50;2.80;;;8.10;90.50;;;;;;5046616;28;20036;-67
2023/12/20 08:05:18;;;;;;;6.35;3.15;;;8.10;91.00;;;;;;5047041;28;20391;-66
2023/12/20 08:07:43;;;;;;;5.47;3.03;;;8.00;91.20;;;;;;5050505;28;20482;-66
2023/12/20 08:10:09;;;;;;;6.22;3.50;;;8.00;91.60;;;;;;5047369;28;20036;-66
2023/12/20 08:12:35;;;;;;;4.82;3.47;;;8.00;91.80;;;;;;5051558;28;20032;-66
2023/12/20 08:15:01;;;;;;;4.70;3.25;;;8.00;92.00;;;;;;5051698;28;20075;-66
2023/12/20 08:17:27;;;;;;;5.47;2.88;;;7.90;92.00;;;;;;5054700;28;20033;-66
2023/12/20 08:19:52;;;;;;;5.03;2.95;;;7.90;92.30;;;;;;5054843;28;20381;-66
2023/12/20 08:22:18;;;;;;;5.70;3.17;;;7.90;92.40;;;;;;5049851;28;20473;-66
2023/12/20 08:24:44;;;;;;;7.20;3.35;;;7.80;92.40;;;;;;5038190;28;20030;-67
2023/12/20 08:27:09;;;;;;;4.97;3.22;;;7.80;92.30;;;;;;5050757;28;20059;-67
2023/12/20 08:29:35;;;;;;;5.82;3.65;;;7.80;92.30;;;;;;5055945;28;20025;-66
2023/12/20 08:32:01;;;;;;;5.47;2.83;;;7.80;92.50;;;;;;5054248;28;20477;-67
2023/12/20 08:34:27;;;;;;;5.82;3.35;;;7.80;92.10;;;;;;5054657;28;20025;-68
2023/12/20 08:36:53;;;;;;;5.43;3.28;;;7.80;92.00;;;;;;5051873;28;20033;-68
2023/12/20 08:39:19;;;;;;;5.93;3.05;;;7.80;92.00;;;;;;5047747;28;20037;-68
2023/12/20 08:41:44;;;;;;;6.13;3.20;;;7.80;91.90;;;;;;5049120;28;20086;-68
2023/12/20 08:44:10;;;;;;;5.32;3.00;;;7.80;92.00;;;;;;5054470;28;20457;-67
2023/12/20 08:46:36;;;;;;;4.60;2.75;;;7.80;91.90;;;;;;5052980;28;20414;-68
2023/12/20 08:49:02;;;;;;;7.97;3.58;;;7.80;92.10;;;;;;5049379;28;20030;-66
2023/12/20 08:51:29;;;;;;;5.15;2.90;;;7.80;92.00;;;;;;5041190;28;20432;-67
2023/12/20 08:53:54;;;;;;;5.00;2.80;;;7.80;92.00;;;;;;5051967;28;20041;-66
2023/12/20 08:56:20;;;;;;;5.13;3.22;;;7.80;91.90;;;;;;5054558;28;20082;-66
2023/12/20 08:58:47;;;;;;;6.03;3.25;;;7.80;91.80;;;;;;5063628;28;20121;-66
2023/12/20 09:01:13;;;;;;;6.38;3.33;;;7.80;92.00;;;;;;5059844;28;20064;-68
2023/12/20 09:03:39;;;;;;;6.85;2.95;;;7.70;92.10;;;;;;5045918;28;20025;-67
2023/12/20 09:06:05;;;;;;;4.07;2.88;;;7.70;92.10;;;;;;5053343;28;20375;-67
2023/12/20 09:08:31;;;;;;;6.43;3.08;;;7.70;92.20;;;;;;5053764;28;20048;-67
2023/12/20 09:10:56;;;;;;;5.10;2.72;;;7.70;92.20;;;;;;5048223;28;20508;-67
2023/12/20 09:13:27;;;;;;;4.95;2.53;;;7.70;92.40;;;;;;5054093;28;20032;-66
2023/12/20 09:15:55;;;;;;;5.00;2.90;;;7.70;92.70;;;;;;5053851;28;20017;-71
2023/12/20 09:18:20;;;;;;;5.43;2.85;;;7.70;92.80;;;;;;5053284;28;20037;-66
2023/12/20 09:20:46;;;;;;;6.78;2.80;;;7.70;93.10;;;;;;5051271;28;20033;-67
2023/12/20 09:23:12;;;;;;;4.13;2.70;;;7.70;93.30;;;;;;5047333;28;20029;-66
2023/12/20 09:25:37;;;;;;;3.90;2.33;;;7.70;93.60;;;;;;5054137;28;20121;-66
2023/12/20 09:28:04;;;;;;;4.22;2.65;;;7.70;93.90;;;;;;5047869;28;20171;-67
2023/12/20 09:30:29;;;;;;;5.82;2.53;;;7.60;94.00;;;;;;5051736;28;20039;-66
2023/12/20 09:32:56;;;;;;;3.15;1.90;;;7.60;94.40;;;;;;5050646;28;20386;-66
2023/12/20 09:35:21;;;;;;;3.13;1.60;;;7.60;94.60;;;;;;5053215;28;20505;-66
2023/12/20 09:37:48;;;;;;;1.98;1.52;;;7.70;94.80;;;;;;5052973;28;20131;-67
2023/12/20 09:40:14;;;;;;;2.78;1.63;;;7.60;94.80;;;;;;5052422;28;20332;-66
2023/12/20 09:42:55;;;;;;;2.10;1.65;;;7.60;95.00;;;;;;5043795;28;20130;-67
2023/12/20 09:45:22;;;;;;;4.43;1.88;;;7.60;95.40;;;;;;5043125;28;20037;-66
2023/12/20 09:47:49;;;;;;;3.33;1.77;;;7.60;95.60;;;;;;5046708;28;20099;-68
2023/12/20 09:50:17;;;;;;;8.05;1.48;;;7.50;96.10;;;;;;5045209;28;20427;-67
2023/12/20 09:52:44;;;;;;;2.38;1.55;;;7.50;96.50;;;;;;5047992;28;20062;-66
2023/12/20 09:55:10;;;;;;;1.70;1.38;;;7.50;96.60;;;;;;5050069;28;20021;-66
2023/12/20 09:57:35;;;;;;;3.03;1.65;;;7.40;96.90;;;;;;5047831;28;20390;-67
2023/12/20 10:00:01;;;;;;;2.03;1.40;;;7.30;97.40;;;;;;5057991;28;20049;-67
2023/12/20 10:02:27;;;;;;;6.38;2.13;;;7.30;97.70;;;;;;5046787;28;20045;-68
2023/12/20 10:04:54;;;;;;;2.92;2.10;;;7.20;98.00;;;;;;5040962;28;20030;-68
2023/12/20 10:07:20;;;;;;;2.63;1.60;;;7.20;98.50;;;;;;5035836;28;20477;-68
2023/12/20 10:09:47;;;;;;;3.92;1.73;;;7.20;99.20;;;;;;5032546;28;20029;-69
2023/12/20 10:12:13;;;;;;;2.75;1.80;;;7.10;99.70;;;;;;5050925;28;20036;-67
2023/12/20 10:14:41;;;;;;;2.88;2.00;;;7.10;99.90;;;;;;5053176;28;20155;-69
2023/12/20 10:17:07;;;;;;;2.75;2.05;;;7.00;99.90;;;;;;5052221;28;20090;-68
2023/12/20 10:19:33;;;;;;;2.28;1.75;;;6.90;99.90;;;;;;5046005;28;20043;-68
2023/12/20 10:22:05;;;;;;;2.65;1.70;;;6.90;99.90;;;;;;5039724;28;20461;-68
2023/12/20 10:24:31;;;;;;;2.65;1.80;;;6.90;99.90;;;;;;5049064;28;20386;-67
2023/12/20 10:27:04;;;;;;;2.72;2.05;;;6.80;99.90;;;;;;5047332;28;20025;-71
2023/12/20 10:29:40;;;;;;;2.33;1.90;;;6.80;99.90;;;;;;5049278;28;20065;-69
2023/12/20 10:32:23;;;;;;;2.05;1.85;;;6.70;99.90;;;;;;5047283;28;20117;-69
2023/12/20 10:34:50;;;;;;;3.58;1.95;;;6.70;99.90;;;;;;5049112;28;20029;-68
2023/12/20 10:37:15;;;;;;;2.60;1.92;;;6.70;99.90;;;;;;5048654;28;20026;-69
2023/12/20 10:39:42;;;;;;;3.20;2.00;;;6.70;99.90;;;;;;5048262;28;20033;-68
2023/12/20 10:42:11;;;;;;;2.90;1.73;;;6.70;99.90;;;;;;5043779;28;20043;-68
2023/12/20 10:44:36;;;;;;;3.00;1.80;;;6.70;99.90;;;;;;5051478;28;20029;-69
2023/12/20 10:47:03;;;;;;;2.47;1.70;;;6.70;99.90;;;;;;5045969;28;20411;-70
2023/12/20 10:49:31;;;;;;;2.25;1.88;;;6.70;99.90;;;;;;5047222;28;20035;-69
2023/12/20 10:51:59;;;;;;;2.30;2.10;;;6.70;99.90;;;;;;5048583;28;20477;-72
2023/12/20 10:54:25;;;;;;;2.20;1.80;;;6.70;99.90;;;;;;5043657;28;20501;-68
2023/12/20 10:56:52;;;;;;;1.67;1.40;;;6.70;99.90;;;;;;5041978;28;20029;-69
2023/12/20 10:59:20;;;;;;;2.13;1.55;;;6.80;99.90;;;;;;5038441;28;20296;-69
2023/12/20 11:01:48;;;;;;;2.70;1.90;;;6.80;99.90;;;;;;5047678;28;20482;-69
2023/12/20 11:04:31;;;;;;;3.17;1.92;;;6.80;99.90;;;;;;5046352;28;20359;-68
2023/12/20 11:07:10;;;;;;;5.22;2.20;;;6.80;99.90;;;;;;5050442;28;20013;-67
2023/12/20 11:09:43;;;;;;;3.38;2.10;;;6.80;99.90;;;;;;5050509;28;20067;-68
2023/12/20 11:12:27;;;;;;;2.47;2.08;;;6.90;99.90;;;;;;5034700;28;20037;-69
2023/12/20 11:14:57;;;;;;;2.53;1.90;;;6.90;99.90;;;;;;5044447;28;20081;-68
2023/12/20 11:17:23;;;;;;;3.13;2.03;;;6.90;99.90;;;;;;5034548;28;20033;-68
2023/12/20 11:19:59;;;;;;;2.67;1.90;;;6.90;99.90;;;;;;5049366;28;20383;-68
2023/12/20 11:22:25;;;;;;;2.45;1.77;;;6.90;99.90;;;;;;5051107;28;20029;-68
2023/12/20 11:24:52;;;;;;;3.08;1.95;;;6.90;99.90;;;;;;5050893;28;20428;-68
2023/12/20 11:27:19;;;;;;;4.47;2.10;;;6.90;99.90;;;;;;5035272;28;20481;-68
2023/12/20 11:29:53;;;;;;;2.80;1.90;;;7.00;99.90;;;;;;5049379;28;20043;-68
2023/12/20 11:32:24;;;;;;;2.50;1.90;;;7.00;99.90;;;;;;5045472;28;20056;-69
2023/12/20 11:35:01;;;;;;;2.55;1.70;;;7.00;99.90;;;;;;5043232;28;20021;-69
2023/12/20 11:37:34;;;;;;;1.88;1.42;;;7.00;99.90;;;;;;5034236;28;20026;-67
2023/12/20 11:40:05;;;;;;;3.35;1.48;;;7.00;99.90;;;;;;5038510;28;20021;-68
2023/12/20 11:42:39;;;;;;;2.95;1.52;;;7.10;99.90;;;;;;5044087;28;20033;-69
2023/12/20 11:45:05;;;;;;;2.20;1.60;;;7.10;99.90;;;;;;5041547;28;20033;-69
2023/12/20 11:47:31;;;;;;;1.75;1.50;;;7.10;99.90;;;;;;5031741;28;20084;-68
2023/12/20 11:49:57;;;;;;;2.35;1.42;;;7.10;99.90;;;;;;5032024;28;20050;-69
2023/12/20 11:52:22;;;;;;;3.75;1.88;;;7.10;99.90;;;;;;5033842;28;20035;-68
2023/12/20 11:54:48;;;;;;;2.33;1.52;;;7.20;99.90;;;;;;5042566;28;20060;-68
2023/12/20 11:57:14;;;;;;;2.67;1.65;;;7.20;99.90;;;;;;5044487;28;20072;-68
2023/12/20 11:59:40;;;;;;;2.60;1.50;;;7.30;99.90;;;;;;5050059;28;20089;-68
2023/12/20 12:02:06;;;;;;;3.30;1.17;;;7.30;99.90;;;;;;5038168;28;20457;-68
2023/12/20 12:04:31;;;;;;;2.08;1.42;;;7.30;99.90;;;;;;5042236;28;20033;-67
2023/12/20 12:06:57;;;;;;;2.83;1.30;;;7.40;99.90;;;;;;5052044;28;20032;-68
2023/12/20 12:09:23;;;;;;;2.70;1.35;;;7.40;99.90;;;;;;5047930;28;20098;-67
2023/12/20 12:11:49;;;;;;;1.90;1.30;;;7.40;99.60;;;;;;5044388;28;20055;-68
2023/12/20 12:14:14;;;;;;;1.83;1.10;;;7.50;99.30;;;;;;5047257;28;20024;-68
2023/12/20 12:16:43;;;;;;;1.42;0.95;;;7.60;99.00;;;;;;5045647;28;20377;-68
2023/12/20 12:19:23;;;;;;;1.40;1.02;;;7.60;98.80;;;;;;5046893;28;20508;-69
2023/12/20 12:22:16;;;;;;;2.20;1.20;;;7.70;98.60;;;;;;5047754;28;20044;-68
2023/12/20 12:24:45;;;;;;;3.05;1.17;;;7.80;98.20;;;;;;5050762;28;20032;-67
2023/12/20 12:27:12;;;;;;;1.50;1.40;;;7.80;98.20;;;;;;5050140;28;20051;-67
2023/12/20 12:29:38;;;;;;;2.10;1.20;;;7.80;98.10;;;;;;5058206;28;20032;-67
2023/12/20 12:32:09;;;;;;;1.50;1.10;;;7.80;97.60;;;;;;5058170;28;20029;-69
2023/12/20 12:34:35;;;;;;;2.00;1.02;;;7.80;97.70;;;;;;5050628;28;20029;-68
2023/12/20 12:37:01;;;;;;;1.63;1.10;;;7.80;97.70;;;;;;5050787;28;20040;-68
2023/12/20 12:39:27;;;;;;;2.38;1.05;;;7.80;97.70;;;;;;5050024;28;20104;-67
2023/12/20 12:41:53;;;;;;;1.40;1.20;;;7.90;97.90;;;;;;5053244;28;20112;-68
2023/12/20 12:44:20;;;;;;;1.98;1.23;;;7.90;98.00;;;;;;5046259;28;20029;-68